createdAt,value
2019-01-28T00:01:45.868Z,9.37
2019-01-28T00:04:27.257Z,10.43
2019-01-28T00:07:08.708Z,8.73
2019-01-28T00:09:49.581Z,7.60
2019-01-28T00:12:30.106Z,7.67
2019-01-28T00:15:10.708Z,6.57
2019-01-28T00:17:51.919Z,10.10
2019-01-28T00:20:32.625Z,6.97
2019-01-28T00:23:14.056Z,8.60
2019-01-28T00:25:55.139Z,7.87
2019-01-28T00:28:36.504Z,6.90
2019-01-28T00:31:17.375Z,6.73
2019-01-28T00:33:58.529Z,8.40
2019-01-28T00:36:39.229Z,5.93
2019-01-28T00:39:20.003Z,6.13
2019-01-28T00:42:01.387Z,8.33
2019-01-28T00:44:42.742Z,6.40
2019-01-28T00:47:22.249Z,8.07
2019-01-28T00:50:25.051Z,9.57
2019-01-28T00:53:00.900Z,8.53
2019-01-28T00:55:49.319Z,6.87
2019-01-28T00:58:37.713Z,6.17
2019-01-28T01:01:26.190Z,7.43
2019-01-28T01:04:14.577Z,5.40
2019-01-28T01:07:02.980Z,7.30
2019-01-28T01:09:51.501Z,5.60
2019-01-28T01:12:39.987Z,7.13
2019-01-28T01:15:28.436Z,7.03
2019-01-28T01:26:59.737Z,8.47
2019-01-28T01:29:48.093Z,5.93
2019-01-28T01:32:36.535Z,6.03
2019-01-28T01:35:25.131Z,4.23
2019-01-28T01:38:13.555Z,4.97
2019-01-28T01:44:09.572Z,4.57
2019-01-28T01:50:03.689Z,5.73
2019-01-28T01:52:41.930Z,4.23
2019-01-28T01:55:30.295Z,2.83
2019-01-28T02:01:12.200Z,4.37
2019-01-28T02:06:54.631Z,5.83
2019-01-28T02:09:43.090Z,2.50
2019-01-28T02:12:31.550Z,3.30
2019-01-28T02:18:13.775Z,3.30
2019-01-28T02:24:09.656Z,5.40
2019-01-28T02:26:58.040Z,3.83
2019-01-28T02:32:40.255Z,3.27
2019-01-28T02:35:28.668Z,5.47
2019-01-28T02:44:10.657Z,4.87
2019-01-28T02:50:07.500Z,6.73
2019-01-28T02:52:55.891Z,5.93
2019-01-28T02:55:44.357Z,5.07
2019-01-28T03:01:40.310Z,5.77
2019-01-28T03:10:30.629Z,5.97
2019-01-28T03:16:20.444Z,7.27
2019-01-28T03:18:59.969Z,9.13
2019-01-28T03:21:48.381Z,9.60
2019-01-28T03:27:58.190Z,6.50
2019-01-28T03:30:34.582Z,6.37
2019-01-28T03:36:09.513Z,6.43
2019-01-28T03:38:50.416Z,4.27
2019-01-28T03:41:31.406Z,4.77
2019-01-28T03:44:12.437Z,6.30
2019-01-28T03:46:53.059Z,7.07
2019-01-28T03:49:33.726Z,6.40
2019-01-28T03:52:17.093Z,6.03
2019-01-28T03:54:46.663Z,5.30
2019-01-28T03:57:16.283Z,4.93
2019-01-28T04:03:33.632Z,4.77
2019-01-28T04:06:03.199Z,5.87
2019-01-28T04:09:11.976Z,5.23
2019-01-28T04:12:00.524Z,4.93
2019-01-28T04:17:36.240Z,3.53
2019-01-28T04:20:17.666Z,4.27
2019-01-28T04:22:59.263Z,5.97
2019-01-28T04:25:40.912Z,5.23
2019-01-28T04:28:21.635Z,3.00
2019-01-28T04:31:02.420Z,4.40
2019-01-28T04:33:43.653Z,2.83
2019-01-28T04:36:24.314Z,2.93
2019-01-28T04:39:05.500Z,4.70
2019-01-28T04:41:46.692Z,5.87
2019-01-28T04:44:28.081Z,2.87
2019-01-28T04:47:09.528Z,3.30
2019-01-28T04:49:51.131Z,2.40
2019-01-28T04:52:32.437Z,3.73
2019-01-28T04:55:13.063Z,2.50
2019-01-28T04:57:54.472Z,4.67
2019-01-28T05:00:35.086Z,3.03
2019-01-28T05:03:16.284Z,2.80
2019-01-28T05:05:56.857Z,3.77
2019-01-28T05:08:38.078Z,3.50
2019-01-28T05:11:19.417Z,3.47
2019-01-28T05:14:00.844Z,3.03
2019-01-28T05:16:42.120Z,4.00
2019-01-28T05:19:22.648Z,3.37
2019-01-28T05:22:03.518Z,3.87
2019-01-28T05:24:44.932Z,4.50
2019-01-28T05:27:25.496Z,4.63
2019-01-28T05:30:06.998Z,3.17
2019-01-28T05:32:47.892Z,2.50
2019-01-28T05:35:29.456Z,2.40
2019-01-28T05:38:11.087Z,2.93
2019-01-28T05:40:52.667Z,2.97
2019-01-28T05:43:33.170Z,7.07
2019-01-28T05:46:14.002Z,2.40
2019-01-28T05:48:54.696Z,4.57
2019-01-28T05:51:35.488Z,4.90
2019-01-28T05:54:16.315Z,3.07
2019-01-28T05:56:56.912Z,2.93
2019-01-28T05:59:37.600Z,3.30
2019-01-28T06:02:18.932Z,3.13
2019-01-28T06:04:59.543Z,2.60
2019-01-28T06:07:41.023Z,4.37
2019-01-28T06:10:22.492Z,3.10
2019-01-28T06:13:03.931Z,4.30
2019-01-28T06:15:45.300Z,4.20
2019-01-28T06:18:26.807Z,2.40
2019-01-28T06:21:08.273Z,2.50
2019-01-28T06:23:49.928Z,3.73
2019-01-28T06:26:31.276Z,3.33
2019-01-28T06:29:12.183Z,2.70
2019-01-28T06:31:53.518Z,3.43
2019-01-28T06:34:34.701Z,3.27
2019-01-28T06:37:15.953Z,5.17
2019-01-28T06:39:57.360Z,3.83
2019-01-28T06:45:20.330Z,2.97
2019-01-28T06:48:01.878Z,3.40
2019-01-28T06:50:43.295Z,3.10
2019-01-28T06:53:24.789Z,3.47
2019-01-28T06:56:05.840Z,4.13
2019-01-28T06:58:46.581Z,3.50
2019-01-28T07:01:27.432Z,5.13
2019-01-28T07:04:08.795Z,5.57
2019-01-28T07:06:49.566Z,4.57
2019-01-28T07:09:31.049Z,3.40
2019-01-28T07:12:12.423Z,3.43
2019-01-28T07:14:53.737Z,4.57
2019-01-28T07:17:35.086Z,4.47
2019-01-28T07:20:16.346Z,4.73
2019-01-28T07:23:05.277Z,5.37
2019-01-28T07:31:45.425Z,5.37
2019-01-28T07:34:52.856Z,5.33
2019-01-28T07:43:32.971Z,5.97
2019-01-28T07:49:17.620Z,6.43
2019-01-28T07:52:06.209Z,5.80
2019-01-28T07:58:23.362Z,6.10
2019-01-28T08:07:04.889Z,7.67
2019-01-28T08:10:07.997Z,7.07
2019-01-28T08:15:40.467Z,5.37
2019-01-28T08:18:22.499Z,5.53
2019-01-28T08:21:03.864Z,5.60
2019-01-28T08:23:45.325Z,5.83
2019-01-28T08:26:27.039Z,6.70
2019-01-28T08:29:08.390Z,7.07
2019-01-28T08:31:49.872Z,7.50
2019-01-28T08:34:30.574Z,6.67
2019-01-28T08:37:12.247Z,7.07
2019-01-28T08:39:53.722Z,7.57
2019-01-28T08:42:35.080Z,7.13
2019-01-28T08:45:16.210Z,7.87
2019-01-28T08:47:57.474Z,8.00
2019-01-28T08:50:38.232Z,9.27
2019-01-28T08:53:19.455Z,9.00
2019-01-28T08:56:00.846Z,11.37
2019-01-28T08:59:09.805Z,12.17
2019-01-28T09:01:58.532Z,10.63
2019-01-28T09:04:59.000Z,10.67
2019-01-28T09:07:37.646Z,8.87
2019-01-28T09:19:29.749Z,10.27
2019-01-28T09:22:18.192Z,10.73
2019-01-28T09:28:22.087Z,13.03
2019-01-28T09:34:17.982Z,11.73
2019-01-28T09:36:59.506Z,12.37
2019-01-28T09:39:41.124Z,10.07
2019-01-28T09:42:22.713Z,16.73
2019-01-28T09:45:03.815Z,12.27
2019-01-28T09:47:44.534Z,13.93
2019-01-28T09:50:27.167Z,17.47
2019-01-28T09:53:08.294Z,11.57
2019-01-28T09:55:49.599Z,11.30
2019-01-28T09:58:31.196Z,9.33
2019-01-28T10:01:11.916Z,10.37
2019-01-28T10:03:52.416Z,11.10
2019-01-28T10:06:33.079Z,8.87
2019-01-28T10:09:14.037Z,9.50
2019-01-28T10:11:55.201Z,8.50
2019-01-28T10:14:35.750Z,4.87
2019-01-28T10:17:17.073Z,6.53
2019-01-28T10:19:57.662Z,6.87
2019-01-28T10:22:38.333Z,6.47
2019-01-28T10:25:19.059Z,6.40
2019-01-28T10:28:00.451Z,6.30
2019-01-28T10:30:41.957Z,5.43
2019-01-28T10:33:23.458Z,5.37
2019-01-28T10:36:04.147Z,4.73
2019-01-28T10:38:45.632Z,5.37
2019-01-28T10:41:27.209Z,4.57
2019-01-28T10:44:10.336Z,7.30
2019-01-28T10:46:50.710Z,7.83
2019-01-28T10:49:32.159Z,5.63
2019-01-28T10:52:13.585Z,7.30
2019-01-28T10:54:55.149Z,9.50
2019-01-28T10:57:36.771Z,7.77
2019-01-28T11:00:17.634Z,10.13
2019-01-28T11:02:59.066Z,7.23
2019-01-28T11:05:40.582Z,11.10
2019-01-28T11:08:22.301Z,10.97
2019-01-28T11:11:03.828Z,14.37
2019-01-28T11:13:45.422Z,12.60
2019-01-28T11:16:27.001Z,11.03
2019-01-28T11:19:08.620Z,10.33
2019-01-28T11:21:50.275Z,14.33
2019-01-28T11:24:31.843Z,9.60
2019-01-28T11:27:13.193Z,10.57
2019-01-28T11:29:54.570Z,9.40
2019-01-28T11:32:36.225Z,10.70
2019-01-28T11:35:17.517Z,9.60
2019-01-28T11:37:58.671Z,7.97
2019-01-28T11:40:39.540Z,6.13
2019-01-28T11:43:21.076Z,6.63
2019-01-28T11:46:01.997Z,10.30
2019-01-28T11:48:43.493Z,9.87
2019-01-28T11:51:24.753Z,7.37
2019-01-28T11:54:05.566Z,8.13
2019-01-28T11:56:46.284Z,6.23
2019-01-28T11:59:27.068Z,11.00
2019-01-28T12:02:08.451Z,12.07
2019-01-28T12:04:49.845Z,7.07
2019-01-28T12:07:30.622Z,8.67
2019-01-28T12:10:12.089Z,9.73
2019-01-28T12:12:53.392Z,9.63
2019-01-28T12:15:34.843Z,16.67
2019-01-28T12:18:15.393Z,12.37
2019-01-28T12:20:56.004Z,6.73
2019-01-28T12:23:37.503Z,6.83
2019-01-28T12:26:18.074Z,6.70
2019-01-28T12:28:59.075Z,7.63
2019-01-28T12:31:39.746Z,13.63
2019-01-28T12:34:21.798Z,7.57
2019-01-28T12:37:03.082Z,6.93
2019-01-28T12:39:44.363Z,9.50
2019-01-28T12:42:25.076Z,8.93
2019-01-28T12:45:05.669Z,10.63
2019-01-28T12:47:46.409Z,4.50
2019-01-28T12:50:27.808Z,5.17
2019-01-28T12:53:09.250Z,4.67
2019-01-28T12:55:50.641Z,6.13
2019-01-28T12:58:31.239Z,4.23
2019-01-28T13:01:12.588Z,5.43
2019-01-28T13:03:53.218Z,5.03
2019-01-28T13:06:34.585Z,8.73
2019-01-28T13:09:15.960Z,4.53
2019-01-28T13:11:57.430Z,5.73
2019-01-28T13:14:38.043Z,7.53
2019-01-28T13:17:19.169Z,6.50
2019-01-28T13:20:00.808Z,7.10
2019-01-28T13:22:44.887Z,5.23
2019-01-28T13:25:23.904Z,5.87
2019-01-28T13:28:05.335Z,4.77
2019-01-28T13:30:46.678Z,6.67
2019-01-28T13:33:28.193Z,6.47
2019-01-28T13:36:09.793Z,4.10
2019-01-28T13:38:50.920Z,6.47
2019-01-28T13:41:32.408Z,4.93
2019-01-28T13:44:13.100Z,5.80
2019-01-28T13:46:54.377Z,4.17
2019-01-28T13:49:38.312Z,4.67
2019-01-28T13:52:17.833Z,8.07
2019-01-28T13:54:58.919Z,4.50
2019-01-28T13:57:39.654Z,6.13
2019-01-28T14:00:21.003Z,4.47
2019-01-28T14:03:02.467Z,5.90
2019-01-28T14:05:43.722Z,8.20
2019-01-28T14:08:24.265Z,7.63
2019-01-28T14:11:05.649Z,8.47
2019-01-28T14:13:46.169Z,5.87
2019-01-28T14:16:15.550Z,5.93
2019-01-28T14:18:56.367Z,5.53
2019-01-28T14:21:37.047Z,7.97
2019-01-28T14:27:00.919Z,6.27
2019-01-28T14:29:41.789Z,7.20
2019-01-28T14:32:23.112Z,7.27
2019-01-28T14:35:03.816Z,9.17
2019-01-28T14:37:44.588Z,9.10
2019-01-28T14:40:25.295Z,10.10
2019-01-28T14:43:05.927Z,13.07
2019-01-28T14:45:46.586Z,6.73
2019-01-28T14:48:27.960Z,12.37
2019-01-28T14:51:08.711Z,10.80
2019-01-28T14:53:49.448Z,10.97
2019-01-28T14:56:30.091Z,11.30
2019-01-28T14:59:11.545Z,11.80
2019-01-28T15:01:52.898Z,16.20
2019-01-28T15:04:34.310Z,8.23
2019-01-28T15:07:15.672Z,10.77
2019-01-28T15:09:56.949Z,13.50
2019-01-28T15:12:44.282Z,8.27
2019-01-28T15:15:20.228Z,8.60
2019-01-28T15:18:01.726Z,8.27
2019-01-28T15:20:42.289Z,13.20
2019-01-28T15:23:23.085Z,12.63
2019-01-28T15:26:04.455Z,10.80
2019-01-28T15:28:45.174Z,9.77
2019-01-28T15:31:26.079Z,9.17
2019-01-28T15:34:07.002Z,13.73
2019-01-28T15:36:48.098Z,19.67
2019-01-28T15:39:28.738Z,7.83
2019-01-28T15:42:10.049Z,13.83
2019-01-28T15:44:51.493Z,17.87
2019-01-28T15:47:32.203Z,10.00
2019-01-28T15:50:13.536Z,14.47
2019-01-28T15:52:55.030Z,12.33
2019-01-28T15:55:35.619Z,12.50
2019-01-28T15:58:16.370Z,8.40
2019-01-28T16:00:56.955Z,8.20
2019-01-28T16:03:37.616Z,6.93
2019-01-28T16:06:19.192Z,10.93
2019-01-28T16:09:00.646Z,9.47
2019-01-28T16:11:41.280Z,13.57
2019-01-28T16:14:22.819Z,11.10
2019-01-28T16:17:04.146Z,13.33
2019-01-28T16:19:44.844Z,12.03
2019-01-28T16:22:25.420Z,11.03
2019-01-28T16:25:06.156Z,9.80
2019-01-28T16:27:47.295Z,11.03
2019-01-28T16:30:31.748Z,9.83
2019-01-28T16:33:13.193Z,13.00
2019-01-28T16:35:54.567Z,9.40
2019-01-28T16:38:35.916Z,7.43
2019-01-28T16:41:16.480Z,12.03
2019-01-28T16:43:57.977Z,7.00
2019-01-28T16:46:39.424Z,10.17
2019-01-28T16:49:20.092Z,10.23
2019-01-28T16:52:01.683Z,10.20
2019-01-28T16:54:42.954Z,5.83
2019-01-28T16:57:23.603Z,7.37
2019-01-28T17:00:04.839Z,7.97
2019-01-28T17:02:44.452Z,15.03
2019-01-28T17:05:33.050Z,8.50
2019-01-28T17:08:21.480Z,9.70
2019-01-28T17:11:09.916Z,6.87
2019-01-28T17:13:58.366Z,8.30
2019-01-28T17:16:46.784Z,10.73
2019-01-28T17:19:35.231Z,14.03
2019-01-28T17:22:23.652Z,7.63
2019-01-28T17:25:13.140Z,12.27
2019-01-28T17:28:01.635Z,15.07
2019-01-28T17:30:50.612Z,9.93
2019-01-28T17:33:39.280Z,10.27
2019-01-28T17:36:29.250Z,8.30
2019-01-28T17:39:10.756Z,7.30
2019-01-28T17:41:51.564Z,11.13
2019-01-28T17:44:32.365Z,7.83
2019-01-28T17:47:12.990Z,7.37
2019-01-28T17:50:01.157Z,12.30
2019-01-28T17:52:37.012Z,9.70
2019-01-28T17:55:17.952Z,11.90
2019-01-28T17:57:58.706Z,8.27
2019-01-28T18:03:37.608Z,8.90
2019-01-28T18:06:18.676Z,12.33
2019-01-28T18:09:00.048Z,11.10
2019-01-28T18:11:41.238Z,8.70
2019-01-28T18:14:22.680Z,9.63
2019-01-28T18:17:04.164Z,10.27
2019-01-28T18:19:45.704Z,9.53
2019-01-28T18:22:31.268Z,13.33
2019-01-28T18:25:14.596Z,9.20
2019-01-28T18:27:55.477Z,13.30
2019-01-28T18:30:55.744Z,7.70
2019-01-28T18:33:37.082Z,12.13
2019-01-28T18:36:18.563Z,16.67
2019-01-28T18:38:59.869Z,6.93
2019-01-28T18:41:41.359Z,9.73
2019-01-28T18:44:22.595Z,11.60
2019-01-28T18:47:03.794Z,11.40
2019-01-28T18:49:45.123Z,10.93
2019-01-28T18:52:26.657Z,8.00
2019-01-28T18:55:08.194Z,11.50
2019-01-28T18:57:49.522Z,10.87
2019-01-28T19:00:31.223Z,8.50
2019-01-28T19:03:12.546Z,13.63
2019-01-28T19:06:01.013Z,10.97
2019-01-28T19:08:41.520Z,7.57
2019-01-28T19:11:49.615Z,8.27
2019-01-28T19:14:56.873Z,9.37
2019-01-28T19:18:04.267Z,7.80
2019-01-28T19:21:11.661Z,12.77
2019-01-28T19:30:02.057Z,6.90
2019-01-28T19:38:38.020Z,10.60
2019-01-28T19:44:35.702Z,5.73
2019-01-28T19:47:24.236Z,7.17
2019-01-28T19:56:36.205Z,10.90
2019-01-28T19:59:24.748Z,7.10
2019-01-28T20:08:15.172Z,7.17
2019-01-28T20:19:41.759Z,10.47
2019-01-28T20:22:23.010Z,9.30
2019-01-28T20:25:03.898Z,11.57
2019-01-28T20:27:33.405Z,5.50
2019-01-28T20:30:02.933Z,8.97
2019-01-28T20:32:32.251Z,12.43
2019-01-28T20:35:20.689Z,5.90
2019-01-28T20:37:50.021Z,6.10
2019-01-28T20:40:19.620Z,9.03
2019-01-28T20:42:49.236Z,11.80
2019-01-28T20:45:20.376Z,8.40
2019-01-28T20:47:49.789Z,8.17
2019-01-28T20:50:21.668Z,8.53
2019-01-28T20:52:51.474Z,8.17
2019-01-28T20:55:22.029Z,7.50
2019-01-28T20:57:51.511Z,11.90
2019-01-28T21:00:23.146Z,8.40
2019-01-28T21:02:55.911Z,9.73
2019-01-28T21:05:26.489Z,10.30
2019-01-28T21:07:55.991Z,8.37
2019-01-28T21:10:25.546Z,8.57
2019-01-28T21:12:55.008Z,10.83
2019-01-28T21:15:24.566Z,9.07
2019-01-28T21:17:53.993Z,12.33
2019-01-28T21:20:23.652Z,10.90
2019-01-28T21:22:53.147Z,7.93
2019-01-28T21:25:24.092Z,10.13
2019-01-28T21:27:53.719Z,12.77
2019-01-28T21:30:25.654Z,12.10
2019-01-28T21:32:55.031Z,12.90
2019-01-28T21:35:46.518Z,10.40
2019-01-28T21:38:20.431Z,7.73
2019-01-28T21:40:49.788Z,16.13
2019-01-28T21:43:19.262Z,8.87
2019-01-28T21:45:48.611Z,9.27
2019-01-28T21:48:17.935Z,13.20
2019-01-28T21:50:47.295Z,9.03
2019-01-28T21:53:16.869Z,13.43
2019-01-28T21:55:46.238Z,11.27
2019-01-28T21:58:15.657Z,9.50
2019-01-28T22:00:45.245Z,10.83
2019-01-28T22:03:14.862Z,10.77
2019-01-28T22:05:44.298Z,11.43
2019-01-28T22:08:13.687Z,15.87
2019-01-28T22:10:43.076Z,10.67
2019-01-28T22:13:12.450Z,10.67
2019-01-28T22:15:41.943Z,9.43
2019-01-28T22:18:11.262Z,14.40
2019-01-28T22:20:40.694Z,9.60
2019-01-28T22:23:10.028Z,17.70
2019-01-28T22:25:39.359Z,13.33
2019-01-28T22:28:08.713Z,11.13
2019-01-28T22:30:38.057Z,8.63
2019-01-28T22:33:08.929Z,9.47
2019-01-28T22:35:38.460Z,15.03
2019-01-28T22:38:07.800Z,11.20
2019-01-28T22:40:37.244Z,11.77
2019-01-28T22:43:06.713Z,15.00
2019-01-28T22:45:37.264Z,10.07
2019-01-28T22:48:06.690Z,12.60
2019-01-28T22:50:36.047Z,12.63
2019-01-28T22:53:05.504Z,17.80
2019-01-28T22:55:36.724Z,8.37
2019-01-28T22:58:07.992Z,12.60
2019-01-28T23:00:50.753Z,7.70
2019-01-28T23:03:26.253Z,9.10
2019-01-28T23:05:55.627Z,10.73
2019-01-28T23:08:24.948Z,15.57
2019-01-28T23:10:55.901Z,13.80
2019-01-28T23:13:25.235Z,10.67
2019-01-28T23:15:54.570Z,10.70
2019-01-28T23:18:23.911Z,11.67
2019-01-28T23:20:53.239Z,9.37
2019-01-28T23:23:23.801Z,12.23
2019-01-28T23:25:54.228Z,8.43
2019-01-28T23:28:23.563Z,15.53
2019-01-28T23:30:52.889Z,16.67
2019-01-28T23:33:22.235Z,14.20
2019-01-28T23:35:51.605Z,11.40
2019-01-28T23:38:20.963Z,12.13
2019-01-28T23:40:50.299Z,18.17
2019-01-28T23:43:19.840Z,12.90
2019-01-28T23:45:49.143Z,16.87
2019-01-28T23:48:18.752Z,12.83
2019-01-28T23:50:48.283Z,15.93
2019-01-28T23:53:17.646Z,16.93
2019-01-28T23:55:46.942Z,12.97
2019-01-28T23:58:16.337Z,12.80
